Mato Grosso, Brazil
Current Conditions -  °F | °C
As of 8:00 AM on Saturday 25 Oct 2014 (Local Time) from SBVH Reporting Station
Clear Clear  
Wind Chill: 70°   Ceiling: Unl
Heat Index: 70°   Visibility: 6mi
Dew Point: 70°   Wind: 5mph
Humidity: 100%   Direction: 310°NW
Pressure: 29.94"   Gusts: NA
Location:  15.01°S, 59.94°W
Report Text: SBVH 251100Z 31004KT CAVOK 21/21 Q1014
Loading
Personal Weather Stations






























Interactive Weather Map
Tropical Storm Tracking
New forecast layout! Learn more

10-Day Weather Forecast

Advertisements
Track Severe Weather on mobile